sensor_id;sensor_type;location;lat;lon;timestamp;P1;durP1;ratioP1;P2;durP2;ratioP2
10467;SDS011;5281;48.878;9.394;2022-08-25T00:00:18;3.83;;;2.60;;
10467;SDS011;5281;48.878;9.394;2022-08-25T00:02:46;4.47;;;2.55;;
10467;SDS011;5281;48.878;9.394;2022-08-25T00:05:14;4.57;;;2.72;;
10467;SDS011;5281;48.878;9.394;2022-08-25T00:07:41;2.72;;;2.28;;
10467;SDS011;5281;48.878;9.394;2022-08-25T00:10:08;4.03;;;2.63;;
10467;SDS011;5281;48.878;9.394;2022-08-25T00:12:35;2.60;;;2.40;;
10467;SDS011;5281;48.878;9.394;2022-08-25T00:15:02;2.83;;;2.40;;
10467;SDS011;5281;48.878;9.394;2022-08-25T00:17:29;7.05;;;2.53;;
10467;SDS011;5281;48.878;9.394;2022-08-25T00:19:56;3.28;;;2.58;;
10467;SDS011;5281;48.878;9.394;2022-08-25T00:22:24;3.85;;;2.63;;
10467;SDS011;5281;48.878;9.394;2022-08-25T00:24:50;2.95;;;2.42;;
10467;SDS011;5281;48.878;9.394;2022-08-25T00:27:17;4.82;;;2.97;;
10467;SDS011;5281;48.878;9.394;2022-08-25T00:29:45;3.13;;;2.83;;
10467;SDS011;5281;48.878;9.394;2022-08-25T00:32:11;6.60;;;2.92;;
10467;SDS011;5281;48.878;9.394;2022-08-25T00:34:39;3.78;;;2.60;;
10467;SDS011;5281;48.878;9.394;2022-08-25T00:37:06;3.45;;;3.10;;
10467;SDS011;5281;48.878;9.394;2022-08-25T00:39:35;3.63;;;2.83;;
10467;SDS011;5281;48.878;9.394;2022-08-25T00:42:03;3.30;;;2.60;;
10467;SDS011;5281;48.878;9.394;2022-08-25T00:44:31;3.13;;;2.78;;
10467;SDS011;5281;48.878;9.394;2022-08-25T00:46:59;3.72;;;2.78;;
10467;SDS011;5281;48.878;9.394;2022-08-25T00:49:28;3.85;;;3.10;;
10467;SDS011;5281;48.878;9.394;2022-08-25T00:51:58;5.20;;;2.80;;
10467;SDS011;5281;48.878;9.394;2022-08-25T00:54:30;4.15;;;2.80;;
10467;SDS011;5281;48.878;9.394;2022-08-25T00:57:00;4.00;;;2.80;;
10467;SDS011;5281;48.878;9.394;2022-08-25T00:59:30;3.35;;;3.05;;
10467;SDS011;5281;48.878;9.394;2022-08-25T01:01:57;3.45;;;3.15;;
10467;SDS011;5281;48.878;9.394;2022-08-25T01:04:24;5.68;;;3.20;;
10467;SDS011;5281;48.878;9.394;2022-08-25T01:06:51;4.10;;;3.10;;
10467;SDS011;5281;48.878;9.394;2022-08-25T01:09:19;5.07;;;2.90;;
10467;SDS011;5281;48.878;9.394;2022-08-25T01:11:47;3.17;;;2.88;;
10467;SDS011;5281;48.878;9.394;2022-08-25T01:14:16;3.40;;;3.10;;
10467;SDS011;5281;48.878;9.394;2022-08-25T01:16:45;3.20;;;2.90;;
10467;SDS011;5281;48.878;9.394;2022-08-25T01:19:12;3.22;;;2.90;;
10467;SDS011;5281;48.878;9.394;2022-08-25T01:21:42;4.72;;;3.22;;
10467;SDS011;5281;48.878;9.394;2022-08-25T01:24:13;5.10;;;3.10;;
10467;SDS011;5281;48.878;9.394;2022-08-25T01:26:55;3.75;;;3.33;;
10467;SDS011;5281;48.878;9.394;2022-08-25T01:29:22;3.40;;;3.00;;
10467;SDS011;5281;48.878;9.394;2022-08-25T01:31:51;4.07;;;3.08;;
10467;SDS011;5281;48.878;9.394;2022-08-25T01:34:21;3.60;;;3.03;;
10467;SDS011;5281;48.878;9.394;2022-08-25T01:36:51;3.42;;;3.08;;
10467;SDS011;5281;48.878;9.394;2022-08-25T01:39:18;3.17;;;2.97;;
10467;SDS011;5281;48.878;9.394;2022-08-25T01:41:53;4.65;;;3.45;;
10467;SDS011;5281;48.878;9.394;2022-08-25T01:44:28;3.20;;;2.90;;
10467;SDS011;5281;48.878;9.394;2022-08-25T01:46:56;4.25;;;3.13;;
10467;SDS011;5281;48.878;9.394;2022-08-25T01:49:22;3.60;;;3.28;;
10467;SDS011;5281;48.878;9.394;2022-08-25T01:51:52;5.00;;;3.50;;
10467;SDS011;5281;48.878;9.394;2022-08-25T01:54:22;3.60;;;3.30;;
10467;SDS011;5281;48.878;9.394;2022-08-25T01:56:48;3.63;;;3.22;;
10467;SDS011;5281;48.878;9.394;2022-08-25T01:59:15;3.33;;;3.03;;
10467;SDS011;5281;48.878;9.394;2022-08-25T02:01:42;6.15;;;3.45;;
10467;SDS011;5281;48.878;9.394;2022-08-25T02:04:09;3.83;;;3.47;;
10467;SDS011;5281;48.878;9.394;2022-08-25T02:06:36;5.25;;;3.67;;
10467;SDS011;5281;48.878;9.394;2022-08-25T02:09:07;5.45;;;3.20;;
10467;SDS011;5281;48.878;9.394;2022-08-25T02:11:36;3.80;;;3.42;;
10467;SDS011;5281;48.878;9.394;2022-08-25T02:14:05;4.28;;;3.20;;
10467;SDS011;5281;48.878;9.394;2022-08-25T02:16:33;3.88;;;3.20;;
10467;SDS011;5281;48.878;9.394;2022-08-25T02:19:02;3.80;;;3.50;;
10467;SDS011;5281;48.878;9.394;2022-08-25T02:21:30;4.65;;;3.65;;
10467;SDS011;5281;48.878;9.394;2022-08-25T02:23:57;5.43;;;3.45;;
10467;SDS011;5281;48.878;9.394;2022-08-25T02:26:26;4.53;;;3.70;;
10467;SDS011;5281;48.878;9.394;2022-08-25T02:28:53;4.68;;;3.60;;
10467;SDS011;5281;48.878;9.394;2022-08-25T02:31:21;5.35;;;3.70;;
10467;SDS011;5281;48.878;9.394;2022-08-25T02:33:49;4.30;;;3.90;;
10467;SDS011;5281;48.878;9.394;2022-08-25T02:36:16;4.75;;;3.60;;
10467;SDS011;5281;48.878;9.394;2022-08-25T02:38:43;6.00;;;4.00;;
10467;SDS011;5281;48.878;9.394;2022-08-25T02:41:12;4.55;;;3.90;;
10467;SDS011;5281;48.878;9.394;2022-08-25T02:43:41;4.97;;;3.80;;
10467;SDS011;5281;48.878;9.394;2022-08-25T02:46:09;5.75;;;3.80;;
10467;SDS011;5281;48.878;9.394;2022-08-25T02:48:37;5.80;;;3.88;;
10467;SDS011;5281;48.878;9.394;2022-08-25T02:51:06;4.72;;;3.92;;
10467;SDS011;5281;48.878;9.394;2022-08-25T02:53:35;4.45;;;3.70;;
10467;SDS011;5281;48.878;9.394;2022-08-25T02:56:03;4.72;;;4.15;;
10467;SDS011;5281;48.878;9.394;2022-08-25T02:58:31;5.88;;;4.10;;
10467;SDS011;5281;48.878;9.394;2022-08-25T03:00:59;3.83;;;3.47;;
10467;SDS011;5281;48.878;9.394;2022-08-25T03:03:26;6.28;;;3.78;;
10467;SDS011;5281;48.878;9.394;2022-08-25T03:05:53;5.28;;;3.90;;
10467;SDS011;5281;48.878;9.394;2022-08-25T03:08:20;5.45;;;3.75;;
10467;SDS011;5281;48.878;9.394;2022-08-25T03:10:47;4.55;;;4.13;;
10467;SDS011;5281;48.878;9.394;2022-08-25T03:13:13;4.30;;;3.90;;
10467;SDS011;5281;48.878;9.394;2022-08-25T03:15:40;5.10;;;4.05;;
10467;SDS011;5281;48.878;9.394;2022-08-25T03:18:09;4.40;;;4.00;;
10467;SDS011;5281;48.878;9.394;2022-08-25T03:20:36;8.48;;;4.30;;
10467;SDS011;5281;48.878;9.394;2022-08-25T03:23:04;5.80;;;4.05;;
10467;SDS011;5281;48.878;9.394;2022-08-25T03:25:32;9.90;;;6.20;;
10467;SDS011;5281;48.878;9.394;2022-08-25T03:28:16;6.13;;;3.97;;
10467;SDS011;5281;48.878;9.394;2022-08-25T03:30:44;6.45;;;4.00;;
10467;SDS011;5281;48.878;9.394;2022-08-25T03:33:12;7.68;;;4.10;;
10467;SDS011;5281;48.878;9.394;2022-08-25T03:35:39;4.70;;;4.00;;
10467;SDS011;5281;48.878;9.394;2022-08-25T03:38:06;5.40;;;4.20;;
10467;SDS011;5281;48.878;9.394;2022-08-25T03:40:32;5.45;;;4.10;;
10467;SDS011;5281;48.878;9.394;2022-08-25T03:42:59;4.57;;;3.88;;
10467;SDS011;5281;48.878;9.394;2022-08-25T03:45:26;6.15;;;4.40;;
10467;SDS011;5281;48.878;9.394;2022-08-25T03:47:52;5.32;;;4.70;;
10467;SDS011;5281;48.878;9.394;2022-08-25T03:50:21;10.73;;;8.35;;
10467;SDS011;5281;48.878;9.394;2022-08-25T03:52:51;9.23;;;6.60;;
10467;SDS011;5281;48.878;9.394;2022-08-25T03:55:20;6.07;;;5.30;;
10467;SDS011;5281;48.878;9.394;2022-08-25T03:57:49;6.03;;;4.32;;
10467;SDS011;5281;48.878;9.394;2022-08-25T04:00:16;5.90;;;5.30;;
10467;SDS011;5281;48.878;9.394;2022-08-25T04:02:43;5.90;;;5.00;;
10467;SDS011;5281;48.878;9.394;2022-08-25T04:05:11;8.70;;;7.35;;
10467;SDS011;5281;48.878;9.394;2022-08-25T04:07:39;5.20;;;4.70;;
10467;SDS011;5281;48.878;9.394;2022-08-25T04:10:06;12.48;;;7.03;;
10467;SDS011;5281;48.878;9.394;2022-08-25T04:12:35;6.40;;;5.07;;
10467;SDS011;5281;48.878;9.394;2022-08-25T04:15:03;4.97;;;4.13;;
10467;SDS011;5281;48.878;9.394;2022-08-25T04:17:31;4.97;;;4.47;;
10467;SDS011;5281;48.878;9.394;2022-08-25T04:19:58;5.45;;;4.78;;
10467;SDS011;5281;48.878;9.394;2022-08-25T04:22:26;6.68;;;4.97;;
10467;SDS011;5281;48.878;9.394;2022-08-25T04:24:56;6.38;;;4.40;;
10467;SDS011;5281;48.878;9.394;2022-08-25T04:27:23;5.78;;;4.45;;
10467;SDS011;5281;48.878;9.394;2022-08-25T04:29:50;5.80;;;4.60;;
10467;SDS011;5281;48.878;9.394;2022-08-25T04:32:17;4.97;;;4.47;;
10467;SDS011;5281;48.878;9.394;2022-08-25T04:34:43;6.40;;;5.25;;
10467;SDS011;5281;48.878;9.394;2022-08-25T04:37:10;7.68;;;5.20;;
10467;SDS011;5281;48.878;9.394;2022-08-25T04:39:37;5.63;;;5.03;;
10467;SDS011;5281;48.878;9.394;2022-08-25T04:42:05;5.47;;;4.63;;
10467;SDS011;5281;48.878;9.394;2022-08-25T04:44:32;4.80;;;4.40;;
10467;SDS011;5281;48.878;9.394;2022-08-25T04:46:59;5.18;;;4.68;;
10467;SDS011;5281;48.878;9.394;2022-08-25T04:49:26;5.13;;;4.63;;
10467;SDS011;5281;48.878;9.394;2022-08-25T04:51:53;6.45;;;5.70;;
10467;SDS011;5281;48.878;9.394;2022-08-25T04:54:20;7.80;;;4.78;;
10467;SDS011;5281;48.878;9.394;2022-08-25T04:56:47;7.80;;;5.40;;
10467;SDS011;5281;48.878;9.394;2022-08-25T04:59:16;6.65;;;4.70;;
10467;SDS011;5281;48.878;9.394;2022-08-25T05:01:44;7.00;;;5.18;;
10467;SDS011;5281;48.878;9.394;2022-08-25T05:04:12;13.00;;;5.20;;
10467;SDS011;5281;48.878;9.394;2022-08-25T05:06:45;14.82;;;5.15;;
10467;SDS011;5281;48.878;9.394;2022-08-25T05:09:11;10.90;;;4.93;;
10467;SDS011;5281;48.878;9.394;2022-08-25T05:11:38;11.40;;;5.35;;
10467;SDS011;5281;48.878;9.394;2022-08-25T05:14:05;9.40;;;5.05;;
10467;SDS011;5281;48.878;9.394;2022-08-25T05:16:37;8.82;;;5.00;;
10467;SDS011;5281;48.878;9.394;2022-08-25T05:19:04;12.48;;;5.30;;
10467;SDS011;5281;48.878;9.394;2022-08-25T05:21:32;8.77;;;5.28;;
10467;SDS011;5281;48.878;9.394;2022-08-25T05:23:59;6.75;;;4.93;;
10467;SDS011;5281;48.878;9.394;2022-08-25T05:26:27;7.93;;;5.15;;
10467;SDS011;5281;48.878;9.394;2022-08-25T05:28:56;6.55;;;5.00;;
10467;SDS011;5281;48.878;9.394;2022-08-25T05:31:24;7.10;;;5.03;;
10467;SDS011;5281;48.878;9.394;2022-08-25T05:33:53;7.22;;;5.18;;
10467;SDS011;5281;48.878;9.394;2022-08-25T05:36:21;8.02;;;5.28;;
10467;SDS011;5281;48.878;9.394;2022-08-25T05:38:49;6.30;;;4.95;;
10467;SDS011;5281;48.878;9.394;2022-08-25T05:41:17;6.82;;;5.00;;
10467;SDS011;5281;48.878;9.394;2022-08-25T05:43:46;7.63;;;5.10;;
10467;SDS011;5281;48.878;9.394;2022-08-25T05:46:15;6.03;;;4.63;;
10467;SDS011;5281;48.878;9.394;2022-08-25T05:48:44;6.15;;;4.45;;
10467;SDS011;5281;48.878;9.394;2022-08-25T05:51:12;5.47;;;4.60;;
10467;SDS011;5281;48.878;9.394;2022-08-25T05:53:40;4.43;;;3.88;;
10467;SDS011;5281;48.878;9.394;2022-08-25T05:56:08;7.63;;;4.30;;
10467;SDS011;5281;48.878;9.394;2022-08-25T05:58:35;7.18;;;4.10;;
10467;SDS011;5281;48.878;9.394;2022-08-25T06:01:03;9.13;;;3.97;;
10467;SDS011;5281;48.878;9.394;2022-08-25T06:03:43;7.82;;;4.00;;
10467;SDS011;5281;48.878;9.394;2022-08-25T06:06:12;8.52;;;4.18;;
10467;SDS011;5281;48.878;9.394;2022-08-25T06:08:39;12.77;;;4.15;;
10467;SDS011;5281;48.878;9.394;2022-08-25T06:11:06;10.90;;;4.65;;
10467;SDS011;5281;48.878;9.394;2022-08-25T06:13:34;8.93;;;4.30;;
10467;SDS011;5281;48.878;9.394;2022-08-25T06:16:01;10.77;;;4.22;;
10467;SDS011;5281;48.878;9.394;2022-08-25T06:18:27;6.47;;;4.00;;
10467;SDS011;5281;48.878;9.394;2022-08-25T06:20:54;6.00;;;4.38;;
10467;SDS011;5281;48.878;9.394;2022-08-25T06:23:22;4.60;;;4.00;;
10467;SDS011;5281;48.878;9.394;2022-08-25T06:25:49;6.40;;;4.00;;
10467;SDS011;5281;48.878;9.394;2022-08-25T06:28:17;5.03;;;4.25;;
10467;SDS011;5281;48.878;9.394;2022-08-25T06:30:44;4.97;;;4.20;;
10467;SDS011;5281;48.878;9.394;2022-08-25T06:33:11;4.35;;;3.80;;
10467;SDS011;5281;48.878;9.394;2022-08-25T06:35:39;8.95;;;4.35;;
10467;SDS011;5281;48.878;9.394;2022-08-25T06:38:06;4.88;;;3.85;;
10467;SDS011;5281;48.878;9.394;2022-08-25T06:40:35;4.78;;;3.97;;
10467;SDS011;5281;48.878;9.394;2022-08-25T06:43:02;6.72;;;4.10;;
10467;SDS011;5281;48.878;9.394;2022-08-25T06:45:32;5.95;;;3.78;;
10467;SDS011;5281;48.878;9.394;2022-08-25T06:47:59;7.45;;;3.67;;
10467;SDS011;5281;48.878;9.394;2022-08-25T06:50:26;6.40;;;4.05;;
10467;SDS011;5281;48.878;9.394;2022-08-25T06:52:53;4.50;;;4.05;;
10467;SDS011;5281;48.878;9.394;2022-08-25T06:55:20;7.18;;;3.40;;
10467;SDS011;5281;48.878;9.394;2022-08-25T06:57:48;4.28;;;3.70;;
10467;SDS011;5281;48.878;9.394;2022-08-25T07:00:17;4.63;;;3.60;;
10467;SDS011;5281;48.878;9.394;2022-08-25T07:02:44;7.03;;;3.72;;
10467;SDS011;5281;48.878;9.394;2022-08-25T07:05:11;7.57;;;3.95;;
10467;SDS011;5281;48.878;9.394;2022-08-25T07:07:38;5.65;;;3.72;;
10467;SDS011;5281;48.878;9.394;2022-08-25T07:10:05;5.45;;;3.55;;
10467;SDS011;5281;48.878;9.394;2022-08-25T07:12:33;5.75;;;3.67;;
10467;SDS011;5281;48.878;9.394;2022-08-25T07:15:01;7.30;;;6.55;;
10467;SDS011;5281;48.878;9.394;2022-08-25T07:17:27;3.92;;;3.35;;
10467;SDS011;5281;48.878;9.394;2022-08-25T07:19:54;4.43;;;3.80;;
10467;SDS011;5281;48.878;9.394;2022-08-25T07:22:21;3.95;;;3.20;;
10467;SDS011;5281;48.878;9.394;2022-08-25T07:24:47;4.30;;;3.30;;
10467;SDS011;5281;48.878;9.394;2022-08-25T07:27:14;4.93;;;3.40;;
10467;SDS011;5281;48.878;9.394;2022-08-25T07:29:41;4.18;;;3.58;;
10467;SDS011;5281;48.878;9.394;2022-08-25T07:32:10;5.82;;;3.53;;
10467;SDS011;5281;48.878;9.394;2022-08-25T07:34:37;3.92;;;3.47;;
10467;SDS011;5281;48.878;9.394;2022-08-25T07:37:21;3.45;;;3.15;;
10467;SDS011;5281;48.878;9.394;2022-08-25T07:39:48;5.82;;;3.17;;
10467;SDS011;5281;48.878;9.394;2022-08-25T07:42:15;3.80;;;3.30;;
10467;SDS011;5281;48.878;9.394;2022-08-25T07:44:41;4.15;;;3.50;;
10467;SDS011;5281;48.878;9.394;2022-08-25T07:47:09;4.82;;;3.53;;
10467;SDS011;5281;48.878;9.394;2022-08-25T07:49:36;4.20;;;3.80;;
10467;SDS011;5281;48.878;9.394;2022-08-25T07:52:03;3.50;;;3.20;;
10467;SDS011;5281;48.878;9.394;2022-08-25T07:54:30;4.70;;;3.40;;
10467;SDS011;5281;48.878;9.394;2022-08-25T07:56:56;5.70;;;3.28;;
10467;SDS011;5281;48.878;9.394;2022-08-25T07:59:23;3.63;;;3.25;;
10467;SDS011;5281;48.878;9.394;2022-08-25T08:01:49;3.90;;;3.30;;
10467;SDS011;5281;48.878;9.394;2022-08-25T08:04:18;3.60;;;3.30;;
10467;SDS011;5281;48.878;9.394;2022-08-25T08:06:44;3.63;;;2.92;;
10467;SDS011;5281;48.878;9.394;2022-08-25T08:09:11;4.15;;;3.42;;
10467;SDS011;5281;48.878;9.394;2022-08-25T08:11:38;3.80;;;3.28;;
10467;SDS011;5281;48.878;9.394;2022-08-25T08:14:08;5.80;;;3.50;;
10467;SDS011;5281;48.878;9.394;2022-08-25T08:16:36;3.50;;;3.20;;
10467;SDS011;5281;48.878;9.394;2022-08-25T08:19:04;6.63;;;3.80;;
10467;SDS011;5281;48.878;9.394;2022-08-25T08:21:34;3.97;;;3.67;;
10467;SDS011;5281;48.878;9.394;2022-08-25T08:24:02;5.90;;;3.63;;
10467;SDS011;5281;48.878;9.394;2022-08-25T08:26:29;5.72;;;4.15;;
10467;SDS011;5281;48.878;9.394;2022-08-25T08:28:56;4.03;;;3.72;;
10467;SDS011;5281;48.878;9.394;2022-08-25T08:31:23;5.97;;;3.80;;
10467;SDS011;5281;48.878;9.394;2022-08-25T08:33:51;4.15;;;3.75;;
10467;SDS011;5281;48.878;9.394;2022-08-25T08:36:19;5.00;;;3.78;;
10467;SDS011;5281;48.878;9.394;2022-08-25T08:38:48;4.90;;;4.15;;
10467;SDS011;5281;48.878;9.394;2022-08-25T08:44:37;5.00;;;3.72;;
10467;SDS011;5281;48.878;9.394;2022-08-25T08:47:13;5.88;;;4.28;;
10467;SDS011;5281;48.878;9.394;2022-08-25T08:49:48;6.65;;;4.50;;
10467;SDS011;5281;48.878;9.394;2022-08-25T08:52:27;4.88;;;4.15;;
10467;SDS011;5281;48.878;9.394;2022-08-25T08:55:06;4.35;;;3.95;;
10467;SDS011;5281;48.878;9.394;2022-08-25T08:57:39;4.85;;;3.90;;
10467;SDS011;5281;48.878;9.394;2022-08-25T09:00:12;4.63;;;4.22;;
10467;SDS011;5281;48.878;9.394;2022-08-25T09:02:41;5.13;;;4.20;;
10467;SDS011;5281;48.878;9.394;2022-08-25T09:05:13;4.10;;;3.70;;
10467;SDS011;5281;48.878;9.394;2022-08-25T09:07:44;5.75;;;3.83;;
10467;SDS011;5281;48.878;9.394;2022-08-25T09:10:15;3.90;;;3.55;;
10467;SDS011;5281;48.878;9.394;2022-08-25T09:12:45;5.18;;;4.28;;
10467;SDS011;5281;48.878;9.394;2022-08-25T09:15:22;4.57;;;4.18;;
10467;SDS011;5281;48.878;9.394;2022-08-25T09:18:19;3.95;;;3.40;;
10467;SDS011;5281;48.878;9.394;2022-08-25T09:20:58;6.07;;;3.53;;
10467;SDS011;5281;48.878;9.394;2022-08-25T09:23:32;4.38;;;3.90;;
10467;SDS011;5281;48.878;9.394;2022-08-25T09:26:15;5.18;;;3.60;;
10467;SDS011;5281;48.878;9.394;2022-08-25T09:28:50;4.00;;;3.60;;
10467;SDS011;5281;48.878;9.394;2022-08-25T09:31:21;5.05;;;3.75;;
10467;SDS011;5281;48.878;9.394;2022-08-25T09:33:49;5.43;;;3.78;;
10467;SDS011;5281;48.878;9.394;2022-08-25T09:36:21;4.15;;;3.58;;
10467;SDS011;5281;48.878;9.394;2022-08-25T09:38:48;4.93;;;3.90;;
10467;SDS011;5281;48.878;9.394;2022-08-25T09:41:17;5.40;;;4.07;;
10467;SDS011;5281;48.878;9.394;2022-08-25T09:43:59;4.43;;;4.03;;
10467;SDS011;5281;48.878;9.394;2022-08-25T09:46:27;4.32;;;3.92;;
10467;SDS011;5281;48.878;9.394;2022-08-25T09:48:55;7.00;;;4.32;;
10467;SDS011;5281;48.878;9.394;2022-08-25T09:51:24;5.43;;;3.78;;
10467;SDS011;5281;48.878;9.394;2022-08-25T09:53:53;4.22;;;3.70;;
10467;SDS011;5281;48.878;9.394;2022-08-25T09:56:24;3.75;;;3.42;;
10467;SDS011;5281;48.878;9.394;2022-08-25T09:58:54;4.78;;;3.42;;
10467;SDS011;5281;48.878;9.394;2022-08-25T10:01:46;4.88;;;3.75;;
10467;SDS011;5281;48.878;9.394;2022-08-25T10:04:14;4.90;;;3.70;;
10467;SDS011;5281;48.878;9.394;2022-08-25T10:06:51;6.13;;;3.35;;
10467;SDS011;5281;48.878;9.394;2022-08-25T10:09:22;4.40;;;3.72;;
10467;SDS011;5281;48.878;9.394;2022-08-25T10:11:54;3.85;;;3.50;;
10467;SDS011;5281;48.878;9.394;2022-08-25T10:14:26;4.97;;;3.50;;
10467;SDS011;5281;48.878;9.394;2022-08-25T10:17:10;3.70;;;3.35;;
10467;SDS011;5281;48.878;9.394;2022-08-25T10:19:39;4.18;;;3.13;;
10467;SDS011;5281;48.878;9.394;2022-08-25T10:22:07;4.60;;;3.30;;
10467;SDS011;5281;48.878;9.394;2022-08-25T10:24:36;3.83;;;3.38;;
10467;SDS011;5281;48.878;9.394;2022-08-25T10:27:08;4.10;;;3.58;;
10467;SDS011;5281;48.878;9.394;2022-08-25T10:30:00;5.40;;;4.90;;
10467;SDS011;5281;48.878;9.394;2022-08-25T10:32:43;5.70;;;4.00;;
10467;SDS011;5281;48.878;9.394;2022-08-25T10:35:25;5.53;;;3.15;;
10467;SDS011;5281;48.878;9.394;2022-08-25T10:38:00;7.95;;;3.63;;
10467;SDS011;5281;48.878;9.394;2022-08-25T10:40:34;4.88;;;3.28;;
10467;SDS011;5281;48.878;9.394;2022-08-25T10:43:09;4.18;;;3.20;;
10467;SDS011;5281;48.878;9.394;2022-08-25T10:45:45;7.65;;;3.67;;
10467;SDS011;5281;48.878;9.394;2022-08-25T10:48:17;3.90;;;3.50;;
10467;SDS011;5281;48.878;9.394;2022-08-25T10:50:58;3.60;;;3.30;;
10467;SDS011;5281;48.878;9.394;2022-08-25T10:53:33;4.35;;;3.70;;
10467;SDS011;5281;48.878;9.394;2022-08-25T10:56:10;4.85;;;3.55;;
10467;SDS011;5281;48.878;9.394;2022-08-25T11:01:43;4.30;;;3.50;;
10467;SDS011;5281;48.878;9.394;2022-08-25T11:04:18;3.30;;;3.00;;
10467;SDS011;5281;48.878;9.394;2022-08-25T11:06:51;3.45;;;3.00;;
10467;SDS011;5281;48.878;9.394;2022-08-25T11:09:24;3.35;;;2.90;;
10467;SDS011;5281;48.878;9.394;2022-08-25T11:11:56;4.57;;;2.65;;
10467;SDS011;5281;48.878;9.394;2022-08-25T11:14:29;5.65;;;2.95;;
10467;SDS011;5281;48.878;9.394;2022-08-25T11:17:00;3.40;;;2.78;;
10467;SDS011;5281;48.878;9.394;2022-08-25T11:19:35;3.42;;;3.08;;
10467;SDS011;5281;48.878;9.394;2022-08-25T11:22:05;5.03;;;3.33;;
10467;SDS011;5281;48.878;9.394;2022-08-25T11:24:42;3.45;;;3.15;;
10467;SDS011;5281;48.878;9.394;2022-08-25T11:27:17;4.35;;;2.85;;
10467;SDS011;5281;48.878;9.394;2022-08-25T11:29:53;4.15;;;2.60;;
10467;SDS011;5281;48.878;9.394;2022-08-25T11:32:27;2.72;;;2.53;;
10467;SDS011;5281;48.878;9.394;2022-08-25T11:34:59;4.00;;;2.97;;
10467;SDS011;5281;48.878;9.394;2022-08-25T11:37:26;3.58;;;3.05;;
10467;SDS011;5281;48.878;9.394;2022-08-25T11:42:59;4.30;;;3.80;;
10467;SDS011;5281;48.878;9.394;2022-08-25T11:45:47;4.35;;;2.80;;
10467;SDS011;5281;48.878;9.394;2022-08-25T11:48:29;2.72;;;2.40;;
10467;SDS011;5281;48.878;9.394;2022-08-25T11:51:04;4.43;;;2.78;;
10467;SDS011;5281;48.878;9.394;2022-08-25T11:53:33;3.53;;;2.95;;
10467;SDS011;5281;48.878;9.394;2022-08-25T11:56:02;3.25;;;2.85;;
10467;SDS011;5281;48.878;9.394;2022-08-25T11:58:33;5.53;;;3.35;;
10467;SDS011;5281;48.878;9.394;2022-08-25T12:01:09;2.88;;;2.65;;
10467;SDS011;5281;48.878;9.394;2022-08-25T12:03:51;5.30;;;2.55;;
10467;SDS011;5281;48.878;9.394;2022-08-25T12:07:00;5.85;;;3.38;;
10467;SDS011;5281;48.878;9.394;2022-08-25T12:12:59;3.65;;;2.97;;
10467;SDS011;5281;48.878;9.394;2022-08-25T12:15:58;2.80;;;2.47;;
10467;SDS011;5281;48.878;9.394;2022-08-25T12:18:40;2.53;;;2.33;;
10467;SDS011;5281;48.878;9.394;2022-08-25T12:21:11;3.20;;;2.63;;
10467;SDS011;5281;48.878;9.394;2022-08-25T12:23:41;3.67;;;2.83;;
10467;SDS011;5281;48.878;9.394;2022-08-25T12:26:12;6.10;;;2.65;;
10467;SDS011;5281;48.878;9.394;2022-08-25T12:28:47;7.57;;;3.22;;
10467;SDS011;5281;48.878;9.394;2022-08-25T12:31:44;7.65;;;2.50;;
10467;SDS011;5281;48.878;9.394;2022-08-25T12:34:30;3.22;;;2.67;;
10467;SDS011;5281;48.878;9.394;2022-08-25T12:37:17;3.47;;;2.72;;
10467;SDS011;5281;48.878;9.394;2022-08-25T12:39:52;4.45;;;2.60;;
10467;SDS011;5281;48.878;9.394;2022-08-25T12:42:27;3.88;;;2.47;;
10467;SDS011;5281;48.878;9.394;2022-08-25T12:45:08;2.88;;;2.53;;
10467;SDS011;5281;48.878;9.394;2022-08-25T12:47:39;2.40;;;2.20;;
10467;SDS011;5281;48.878;9.394;2022-08-25T12:50:28;3.13;;;2.20;;
10467;SDS011;5281;48.878;9.394;2022-08-25T12:53:11;4.03;;;2.70;;
10467;SDS011;5281;48.878;9.394;2022-08-25T12:55:45;4.68;;;2.42;;
10467;SDS011;5281;48.878;9.394;2022-08-25T12:58:15;2.88;;;2.50;;
10467;SDS011;5281;48.878;9.394;2022-08-25T13:03:44;2.97;;;2.65;;
10467;SDS011;5281;48.878;9.394;2022-08-25T13:06:35;2.70;;;2.50;;
10467;SDS011;5281;48.878;9.394;2022-08-25T13:09:17;3.45;;;2.63;;
10467;SDS011;5281;48.878;9.394;2022-08-25T13:12:15;2.42;;;2.22;;
10467;SDS011;5281;48.878;9.394;2022-08-25T13:14:44;2.45;;;2.25;;
10467;SDS011;5281;48.878;9.394;2022-08-25T13:17:24;3.72;;;2.50;;
10467;SDS011;5281;48.878;9.394;2022-08-25T13:22:39;5.68;;;2.25;;
10467;SDS011;5281;48.878;9.394;2022-08-25T13:25:13;2.35;;;2.15;;
10467;SDS011;5281;48.878;9.394;2022-08-25T13:27:41;2.30;;;2.10;;
10467;SDS011;5281;48.878;9.394;2022-08-25T13:30:22;2.65;;;2.00;;
10467;SDS011;5281;48.878;9.394;2022-08-25T13:32:51;2.47;;;2.28;;
10467;SDS011;5281;48.878;9.394;2022-08-25T13:35:19;4.10;;;2.03;;
10467;SDS011;5281;48.878;9.394;2022-08-25T13:37:50;3.15;;;2.10;;
10467;SDS011;5281;48.878;9.394;2022-08-25T13:40:21;3.47;;;2.15;;
10467;SDS011;5281;48.878;9.394;2022-08-25T13:42:51;3.58;;;2.60;;
10467;SDS011;5281;48.878;9.394;2022-08-25T13:45:25;2.75;;;2.40;;
10467;SDS011;5281;48.878;9.394;2022-08-25T13:47:53;2.80;;;2.40;;
10467;SDS011;5281;48.878;9.394;2022-08-25T13:50:28;4.78;;;3.00;;
10467;SDS011;5281;48.878;9.394;2022-08-25T13:53:00;7.25;;;2.55;;
10467;SDS011;5281;48.878;9.394;2022-08-25T13:55:30;5.18;;;2.85;;
10467;SDS011;5281;48.878;9.394;2022-08-25T13:58:01;4.38;;;2.83;;
10467;SDS011;5281;48.878;9.394;2022-08-25T14:00:31;3.70;;;2.60;;
10467;SDS011;5281;48.878;9.394;2022-08-25T14:03:00;5.95;;;3.10;;
10467;SDS011;5281;48.878;9.394;2022-08-25T14:05:30;4.22;;;2.92;;
10467;SDS011;5281;48.878;9.394;2022-08-25T14:08:02;2.80;;;2.60;;
10467;SDS011;5281;48.878;9.394;2022-08-25T14:10:32;3.22;;;2.70;;
10467;SDS011;5281;48.878;9.394;2022-08-25T14:13:09;3.38;;;2.80;;
10467;SDS011;5281;48.878;9.394;2022-08-25T14:15:38;3.20;;;2.60;;
10467;SDS011;5281;48.878;9.394;2022-08-25T14:18:06;4.00;;;2.50;;
10467;SDS011;5281;48.878;9.394;2022-08-25T14:20:36;3.97;;;2.70;;
10467;SDS011;5281;48.878;9.394;2022-08-25T14:23:10;2.60;;;2.40;;
10467;SDS011;5281;48.878;9.394;2022-08-25T14:25:40;3.92;;;2.47;;
10467;SDS011;5281;48.878;9.394;2022-08-25T14:28:09;4.43;;;2.55;;
10467;SDS011;5281;48.878;9.394;2022-08-25T14:30:39;2.92;;;2.35;;
10467;SDS011;5281;48.878;9.394;2022-08-25T14:33:08;4.38;;;2.40;;
10467;SDS011;5281;48.878;9.394;2022-08-25T14:35:36;5.32;;;2.70;;
10467;SDS011;5281;48.878;9.394;2022-08-25T14:38:09;3.30;;;2.70;;
10467;SDS011;5281;48.878;9.394;2022-08-25T14:40:37;3.25;;;2.53;;
10467;SDS011;5281;48.878;9.394;2022-08-25T14:43:04;2.75;;;2.50;;
10467;SDS011;5281;48.878;9.394;2022-08-25T14:45:31;3.88;;;2.85;;
10467;SDS011;5281;48.878;9.394;2022-08-25T14:48:02;2.70;;;2.50;;
10467;SDS011;5281;48.878;9.394;2022-08-25T14:50:31;3.45;;;2.50;;
10467;SDS011;5281;48.878;9.394;2022-08-25T14:52:59;5.40;;;2.55;;
10467;SDS011;5281;48.878;9.394;2022-08-25T14:55:28;2.88;;;2.53;;
10467;SDS011;5281;48.878;9.394;2022-08-25T14:57:55;4.85;;;2.30;;
10467;SDS011;5281;48.878;9.394;2022-08-25T15:00:22;3.80;;;2.42;;
10467;SDS011;5281;48.878;9.394;2022-08-25T15:02:49;4.43;;;2.35;;
10467;SDS011;5281;48.878;9.394;2022-08-25T15:05:19;3.83;;;2.33;;
10467;SDS011;5281;48.878;9.394;2022-08-25T15:07:51;3.05;;;2.65;;
10467;SDS011;5281;48.878;9.394;2022-08-25T15:10:38;2.85;;;2.42;;
10467;SDS011;5281;48.878;9.394;2022-08-25T15:13:05;5.10;;;2.33;;
10467;SDS011;5281;48.878;9.394;2022-08-25T15:15:33;2.70;;;2.42;;
10467;SDS011;5281;48.878;9.394;2022-08-25T15:18:05;4.13;;;2.40;;
10467;SDS011;5281;48.878;9.394;2022-08-25T15:20:31;3.67;;;2.33;;
10467;SDS011;5281;48.878;9.394;2022-08-25T15:22:59;2.85;;;2.40;;
10467;SDS011;5281;48.878;9.394;2022-08-25T15:25:26;3.40;;;2.30;;
10467;SDS011;5281;48.878;9.394;2022-08-25T15:27:54;2.67;;;2.47;;
10467;SDS011;5281;48.878;9.394;2022-08-25T15:30:21;2.92;;;2.42;;
10467;SDS011;5281;48.878;9.394;2022-08-25T15:32:48;2.55;;;2.35;;
10467;SDS011;5281;48.878;9.394;2022-08-25T15:35:15;5.38;;;2.47;;
10467;SDS011;5281;48.878;9.394;2022-08-25T15:37:41;4.40;;;2.63;;